Genbu — JD4128 — position and weather

sailwx.info

Track history (hours):
 
Tides and Currents Weather Stations Pressure Air Temp Water Temp Dewpoint Dewpoint Depression Visibility Wind Speed Wind Dir Waves Ship Positions

Genbu

Last reported at 2018-Feb-20 17:17 UTC. Time now 2018-Feb-20 17:55 UTC.
Position N 41°55' E 141°34'.

Length 149 m; draft 6.7 m.

Type: Ship. MMSI: 431009113.

Date/timePositionNaut miles runAvg speedWind from/ knotsBaromVisibWave heightAir tempDewpointWater temp
2018-Feb-20 17:17N 41°55' E 141°34'614.0
2018-Feb-20 16:50N 41°48' E 141°34'714.8
2018-Feb-20 16:23N 41°42' E 141°35'614.5
2018-Feb-20 16:00N 41°36' E 141°35'714.2
2018-Feb-20 15:29N 41°29' E 141°34'1113.7
2018-Feb-20 14:42N 41°18' E 141°38'38114.1
2018-Feb-19 11:40N 35°02' E 140°24'922.6
2018-Feb-19 11:17N 34°57' E 140°15'622.5
2018-Feb-19 11:00N 34°54' E 140°09'1221.2
2018-Feb-19 10:26N 34°51' E 139°54'1018.3
2018-Feb-19 09:54N 34°56' E 139°44'718.4
2018-Feb-19 09:30N 35°03' E 139°44'917.6
2018-Feb-19 09:01N 35°11' E 139°46'611.4
2018-Feb-19 08:31N 35°17' E 139°45'510.2
2018-Feb-19 08:00N 35°19' E 139°39'0 0.3
2018-Feb-19 07:29N 35°19' E 139°39'0 0.0
2018-Feb-19 06:59N 35°19' E 139°39'0 0.0
2018-Feb-19 06:29N 35°19' E 139°39'0 0.0
2018-Feb-19 05:59N 35°19' E 139°39'0 0.0
2018-Feb-19 05:29N 35°19' E 139°39'0 0.0
2018-Feb-19 04:59N 35°19' E 139°39'0 0.0
2018-Feb-19 04:19N 35°19' E 139°39'1 2.7
2018-Feb-19 04:01N 35°19' E 139°40'714.8
2018-Feb-19 03:30N 35°25' E 139°44'510.6
2018-Feb-19 03:00N 35°30' E 139°46'0 0.1
2018-Feb-19 02:26N 35°30' E 139°46'0 0.0
2018-Feb-19 01:50N 35°30' E 139°46'0 0.0
2018-Feb-19 01:26N 35°30' E 139°46'0 0.0
2018-Feb-19 00:53N 35°30' E 139°46'0 0.0
2018-Feb-19 00:26N 35°30' E 139°46'0 0.0
2018-Feb-18 23:59N 35°30' E 139°46'0 0.0
2018-Feb-18 23:29N 35°30' E 139°46'0 0.0
2018-Feb-18 22:53N 35°30' E 139°46'0 0.0
2018-Feb-18 22:29N 35°30' E 139°46'0 0.0
2018-Feb-18 21:53N 35°30' E 139°46'0 0.0
2018-Feb-18 21:29N 35°30' E 139°46'0 0.1
2018-Feb-18 21:00N 35°30' E 139°46'4 7.9
2018-Feb-18 20:31N 35°29' E 139°42'510.1
2018-Feb-18 20:00N 35°25' E 139°46'510.0
2018-Feb-18 19:30N 35°20' E 139°44'611.0
2018-Feb-18 19:00N 35°15' E 139°47'612.9
2018-Feb-18 18:30N 35°09' E 139°45'815.1
2018-Feb-18 18:00N 35°01' E 139°43'713.1
2018-Feb-18 17:28N 34°54' E 139°43'2112.7
2018-Feb-18 15:50N 34°54' E 140°09'39816.6
2018-Feb-17 15:53N 41°26' E 141°36'919.5
2018-Feb-17 15:27N 41°35' E 141°35'14 0.9
2018-Feb-16 23:57N 41°48' E 141°35'613.7
2018-Feb-16 23:28N 41°42' E 141°35'817.4
2018-Feb-16 23:00N 41°34' E 141°34'917.4
2018-Feb-16 22:31N 41°25' E 141°35'38711.3
2018-Feb-15 12:15N 35°02' E 140°25'513.2
2018-Feb-15 11:51N 34°59' E 140°19'612.8
2018-Feb-15 11:21N 34°56' E 140°12'712.1
2018-Feb-15 10:48N 34°53' E 140°05'412.0
2018-Feb-15 10:28N 34°50' E 140°01'912.4
2018-Feb-15 09:45N 34°51' E 139°50'414.6
2018-Feb-15 09:30N 34°53' E 139°47'713.5
2018-Feb-15 09:00N 34°59' E 139°43'612.4
2018-Feb-15 08:30N 35°05' E 139°44'612.8
2018-Feb-15 08:00N 35°11' E 139°46'611.5
2018-Feb-15 07:30N 35°17' E 139°45'510.1
2018-Feb-15 07:00N 35°19' E 139°39'0 0.4
2018-Feb-15 06:24N 35°19' E 139°39'0 0.0
2018-Feb-15 06:00N 35°19' E 139°39'0 0.0
2018-Feb-15 05:27N 35°19' E 139°39'0 0.0
2018-Feb-15 05:00N 35°19' E 139°39'0 0.0
2018-Feb-15 04:27N 35°19' E 139°39'0 0.0
2018-Feb-15 03:57N 35°19' E 139°39'0 0.0
2018-Feb-15 03:15N 35°19' E 139°39'0 0.0
2018-Feb-15 02:54N 35°19' E 139°39'0 0.0
2018-Feb-15 02:30N 35°19' E 139°39'0 0.0
2018-Feb-15 02:00N 35°19' E 139°39'0 0.0
2018-Feb-15 01:27N 35°19' E 139°39'0 0.0
2018-Feb-15 00:57N 35°19' E 139°39'0 0.0
2018-Feb-15 00:30N 35°19' E 139°39'0 0.0
2018-Feb-15 00:00N 35°19' E 139°39'0 0.0
2018-Feb-14 23:27N 35°19' E 139°39'0 0.1
2018-Feb-14 23:01N 35°19' E 139°39'2 4.9
2018-Feb-14 22:31N 35°20' E 139°42'714.6
2018-Feb-14 22:00N 35°27' E 139°45'4 7.1
2018-Feb-14 21:30N 35°30' E 139°46'0 0.0
2018-Feb-14 21:00N 35°30' E 139°46'0 0.0
2018-Feb-14 20:30N 35°30' E 139°46'0 0.0
2018-Feb-14 20:00N 35°30' E 139°46'0 0.0
2018-Feb-14 19:30N 35°30' E 139°46'0 0.0
2018-Feb-14 19:00N 35°30' E 139°46'0 0.0
2018-Feb-14 18:30N 35°30' E 139°46'0 0.0
2018-Feb-14 17:54N 35°30' E 139°46'0 0.0
2018-Feb-14 17:31N 35°30' E 139°46'0 0.0
2018-Feb-14 17:01N 35°30' E 139°46'0 0.0
2018-Feb-14 16:30N 35°30' E 139°46'0 0.0
2018-Feb-14 16:00N 35°30' E 139°46'0 0.0
2018-Feb-14 15:28N 35°30' E 139°46'0 0.0
2018-Feb-14 14:57N 35°30' E 139°46'0 0.0
2018-Feb-14 14:12N 35°30' E 139°46'0 0.0
2018-Feb-14 14:00N 35°30' E 139°46'0 0.0
2018-Feb-14 13:30N 35°30' E 139°46'0 0.0
2018-Feb-14 13:00N 35°30' E 139°46'0 0.0
2018-Feb-14 12:30N 35°30' E 139°46'0 0.0
2018-Feb-14 11:58N 35°30' E 139°46'0 0.0
2018-Feb-14 11:30N 35°30' E 139°46'0 0.0
2018-Feb-14 11:01N 35°30' E 139°46'0 0.0
2018-Feb-14 10:30N 35°30' E 139°46'0 0.0
2018-Feb-14 10:00N 35°30' E 139°46'0 0.0
2018-Feb-14 09:30N 35°30' E 139°46'0 0.0
2018-Feb-14 09:00N 35°30' E 139°46'0 0.0
2018-Feb-14 08:30N 35°30' E 139°46'0 0.0
2018-Feb-14 08:00N 35°30' E 139°46'0 0.0
2018-Feb-14 07:30N 35°30' E 139°46'0 0.0
2018-Feb-14 07:00N 35°30' E 139°46'0 0.0
2018-Feb-14 06:30N 35°30' E 139°46'0 0.0
2018-Feb-14 06:00N 35°30' E 139°46'0 0.0
2018-Feb-14 05:30N 35°30' E 139°46'0 0.0
2018-Feb-14 05:01N 35°30' E 139°46'0 0.0
2018-Feb-14 04:30N 35°30' E 139°46'0 0.0
2018-Feb-14 04:00N 35°30' E 139°46'0 0.0
2018-Feb-14 03:30N 35°30' E 139°46'0 0.0
2018-Feb-14 03:00N 35°30' E 139°46'0 0.0
2018-Feb-14 01:54N 35°30' E 139°46'0 0.0
2018-Feb-14 01:30N 35°30' E 139°46'0 0.0
2018-Feb-14 00:51N 35°30' E 139°46'0 0.2
2018-Feb-14 00:30N 35°30' E 139°46'2 4.0
2018-Feb-14 00:00N 35°29' E 139°48'5 9.4
2018-Feb-13 23:31N 35°24' E 139°46'510.7
2018-Feb-13 23:00N 35°19' E 139°44'510.4
2018-Feb-13 22:30N 35°15' E 139°47'511.0
2018-Feb-13 22:00N 35°09' E 139°46'612.7
2018-Feb-13 21:30N 35°03' E 139°43'917.3
2018-Feb-13 20:58N 34°54' E 139°44'2016.7
2018-Feb-13 19:47N 34°54' E 140°09'36314.7
2018-Feb-12 19:00N 40°52' E 141°33'27 9.8
2018-Feb-12 16:14N 41°18' E 141°36'511.2
2018-Feb-12 15:45N 41°24' E 141°35'612.0
2018-Feb-12 15:16N 41°30' E 141°34'412.8
2018-Feb-12 14:59N 41°33' E 141°34'612.6
2018-Feb-12 14:29N 41°39' E 141°33'812.6
2018-Feb-12 13:49N 41°48' E 141°34'1 0.1
2018-Feb-11 17:17N 41°49' E 141°35'414.4
2018-Feb-11 16:58N 41°45' E 141°35'815.1
2018-Feb-11 16:25N 41°36' E 141°35'715.8
2018-Feb-11 15:57N 41°29' E 141°35'  
Track history (hours):
 
Tides and Currents Weather Stations Pressure Air Temp Water Temp Dewpoint Dewpoint Depression Visibility Wind Speed Wind Dir Waves Ship Positions

Genbu

Last reported at 2018-Feb-20 17:17 UTC. Time now 2018-Feb-20 17:55 UTC.
Position N 41°55' E 141°34'.

Length 149 m; draft 6.7 m.

Type: Ship. MMSI: 431009113.

Date/timePositionNaut miles runAvg speedWind from/ knotsBaromVisibWave heightAir tempDewpointWater temp
2018-Feb-20 17:17N 41°55' E 141°34'614.0
2018-Feb-20 16:50N 41°48' E 141°34'714.8
2018-Feb-20 16:23N 41°42' E 141°35'614.5
2018-Feb-20 16:00N 41°36' E 141°35'714.2
2018-Feb-20 15:29N 41°29' E 141°34'1113.7
2018-Feb-20 14:42N 41°18' E 141°38'38114.1
2018-Feb-19 11:40N 35°02' E 140°24'922.6
2018-Feb-19 11:17N 34°57' E 140°15'622.5
2018-Feb-19 11:00N 34°54' E 140°09'1221.2
2018-Feb-19 10:26N 34°51' E 139°54'1018.3
2018-Feb-19 09:54N 34°56' E 139°44'718.4
2018-Feb-19 09:30N 35°03' E 139°44'917.6
2018-Feb-19 09:01N 35°11' E 139°46'611.4
2018-Feb-19 08:31N 35°17' E 139°45'510.2
2018-Feb-19 08:00N 35°19' E 139°39'0 0.3
2018-Feb-19 07:29N 35°19' E 139°39'0 0.0
2018-Feb-19 06:59N 35°19' E 139°39'0 0.0
2018-Feb-19 06:29N 35°19' E 139°39'0 0.0
2018-Feb-19 05:59N 35°19' E 139°39'0 0.0
2018-Feb-19 05:29N 35°19' E 139°39'0 0.0
2018-Feb-19 04:59N 35°19' E 139°39'0 0.0
2018-Feb-19 04:19N 35°19' E 139°39'1 2.7
2018-Feb-19 04:01N 35°19' E 139°40'714.8
2018-Feb-19 03:30N 35°25' E 139°44'510.6
2018-Feb-19 03:00N 35°30' E 139°46'0 0.1
2018-Feb-19 02:26N 35°30' E 139°46'0 0.0
2018-Feb-19 01:50N 35°30' E 139°46'0 0.0
2018-Feb-19 01:26N 35°30' E 139°46'0 0.0
2018-Feb-19 00:53N 35°30' E 139°46'0 0.0
2018-Feb-19 00:26N 35°30' E 139°46'0 0.0
2018-Feb-18 23:59N 35°30' E 139°46'0 0.0
2018-Feb-18 23:29N 35°30' E 139°46'0 0.0
2018-Feb-18 22:53N 35°30' E 139°46'0 0.0
2018-Feb-18 22:29N 35°30' E 139°46'0 0.0
2018-Feb-18 21:53N 35°30' E 139°46'0 0.0
2018-Feb-18 21:29N 35°30' E 139°46'0 0.1
2018-Feb-18 21:00N 35°30' E 139°46'4 7.9
2018-Feb-18 20:31N 35°29' E 139°42'510.1
2018-Feb-18 20:00N 35°25' E 139°46'510.0
2018-Feb-18 19:30N 35°20' E 139°44'611.0
2018-Feb-18 19:00N 35°15' E 139°47'612.9
2018-Feb-18 18:30N 35°09' E 139°45'815.1
2018-Feb-18 18:00N 35°01' E 139°43'713.1
2018-Feb-18 17:28N 34°54' E 139°43'2112.7
2018-Feb-18 15:50N 34°54' E 140°09'39816.6
2018-Feb-17 15:53N 41°26' E 141°36'919.5
2018-Feb-17 15:27N 41°35' E 141°35'14 0.9
2018-Feb-16 23:57N 41°48' E 141°35'613.7
2018-Feb-16 23:28N 41°42' E 141°35'817.4
2018-Feb-16 23:00N 41°34' E 141°34'917.4
2018-Feb-16 22:31N 41°25' E 141°35'38711.3
2018-Feb-15 12:15N 35°02' E 140°25'513.2
2018-Feb-15 11:51N 34°59' E 140°19'612.8
2018-Feb-15 11:21N 34°56' E 140°12'712.1
2018-Feb-15 10:48N 34°53' E 140°05'412.0
2018-Feb-15 10:28N 34°50' E 140°01'912.4
2018-Feb-15 09:45N 34°51' E 139°50'414.6
2018-Feb-15 09:30N 34°53' E 139°47'713.5
2018-Feb-15 09:00N 34°59' E 139°43'612.4
2018-Feb-15 08:30N 35°05' E 139°44'612.8
2018-Feb-15 08:00N 35°11' E 139°46'611.5
2018-Feb-15 07:30N 35°17' E 139°45'510.1
2018-Feb-15 07:00N 35°19' E 139°39'0 0.4
2018-Feb-15 06:24N 35°19' E 139°39'0 0.0
2018-Feb-15 06:00N 35°19' E 139°39'0 0.0
2018-Feb-15 05:27N 35°19' E 139°39'0 0.0
2018-Feb-15 05:00N 35°19' E 139°39'0 0.0
2018-Feb-15 04:27N 35°19' E 139°39'0 0.0
2018-Feb-15 03:57N 35°19' E 139°39'0 0.0
2018-Feb-15 03:15N 35°19' E 139°39'0 0.0
2018-Feb-15 02:54N 35°19' E 139°39'0 0.0
2018-Feb-15 02:30N 35°19' E 139°39'0 0.0
2018-Feb-15 02:00N 35°19' E 139°39'0 0.0
2018-Feb-15 01:27N 35°19' E 139°39'0 0.0
2018-Feb-15 00:57N 35°19' E 139°39'0 0.0
2018-Feb-15 00:30N 35°19' E 139°39'0 0.0
2018-Feb-15 00:00N 35°19' E 139°39'0 0.0
2018-Feb-14 23:27N 35°19' E 139°39'0 0.1
2018-Feb-14 23:01N 35°19' E 139°39'2 4.9
2018-Feb-14 22:31N 35°20' E 139°42'714.6
2018-Feb-14 22:00N 35°27' E 139°45'4 7.1
2018-Feb-14 21:30N 35°30' E 139°46'0 0.0
2018-Feb-14 21:00N 35°30' E 139°46'0 0.0
2018-Feb-14 20:30N 35°30' E 139°46'0 0.0
2018-Feb-14 20:00N 35°30' E 139°46'0 0.0
2018-Feb-14 19:30N 35°30' E 139°46'0 0.0
2018-Feb-14 19:00N 35°30' E 139°46'0 0.0
2018-Feb-14 18:30N 35°30' E 139°46'0 0.0
2018-Feb-14 17:54N 35°30' E 139°46'0 0.0
2018-Feb-14 17:31N 35°30' E 139°46'0 0.0
2018-Feb-14 17:01N 35°30' E 139°46'0 0.0
2018-Feb-14 16:30N 35°30' E 139°46'0 0.0
2018-Feb-14 16:00N 35°30' E 139°46'0 0.0
2018-Feb-14 15:28N 35°30' E 139°46'0 0.0
2018-Feb-14 14:57N 35°30' E 139°46'0 0.0
2018-Feb-14 14:12N 35°30' E 139°46'0 0.0
2018-Feb-14 14:00N 35°30' E 139°46'0 0.0
2018-Feb-14 13:30N 35°30' E 139°46'0 0.0
2018-Feb-14 13:00N 35°30' E 139°46'0 0.0
2018-Feb-14 12:30N 35°30' E 139°46'0 0.0
2018-Feb-14 11:58N 35°30' E 139°46'0 0.0
2018-Feb-14 11:30N 35°30' E 139°46'0 0.0
2018-Feb-14 11:01N 35°30' E 139°46'0 0.0
2018-Feb-14 10:30N 35°30' E 139°46'0 0.0
2018-Feb-14 10:00N 35°30' E 139°46'0 0.0
2018-Feb-14 09:30N 35°30' E 139°46'0 0.0
2018-Feb-14 09:00N 35°30' E 139°46'0 0.0
2018-Feb-14 08:30N 35°30' E 139°46'0 0.0
2018-Feb-14 08:00N 35°30' E 139°46'0 0.0
2018-Feb-14 07:30N 35°30' E 139°46'0 0.0
2018-Feb-14 07:00N 35°30' E 139°46'0 0.0
2018-Feb-14 06:30N 35°30' E 139°46'0 0.0
2018-Feb-14 06:00N 35°30' E 139°46'0 0.0
2018-Feb-14 05:30N 35°30' E 139°46'0 0.0
2018-Feb-14 05:01N 35°30' E 139°46'0 0.0
2018-Feb-14 04:30N 35°30' E 139°46'0 0.0
2018-Feb-14 04:00N 35°30' E 139°46'0 0.0
2018-Feb-14 03:30N 35°30' E 139°46'0 0.0
2018-Feb-14 03:00N 35°30' E 139°46'0 0.0
2018-Feb-14 01:54N 35°30' E 139°46'0 0.0
2018-Feb-14 01:30N 35°30' E 139°46'0 0.0
2018-Feb-14 00:51N 35°30' E 139°46'0 0.2
2018-Feb-14 00:30N 35°30' E 139°46'2 4.0
2018-Feb-14 00:00N 35°29' E 139°48'5 9.4
2018-Feb-13 23:31N 35°24' E 139°46'510.7
2018-Feb-13 23:00N 35°19' E 139°44'510.4
2018-Feb-13 22:30N 35°15' E 139°47'511.0
2018-Feb-13 22:00N 35°09' E 139°46'612.7
2018-Feb-13 21:30N 35°03' E 139°43'917.3
2018-Feb-13 20:58N 34°54' E 139°44'2016.7
2018-Feb-13 19:47N 34°54' E 140°09'36314.7
2018-Feb-12 19:00N 40°52' E 141°33'27 9.8
2018-Feb-12 16:14N 41°18' E 141°36'511.2
2018-Feb-12 15:45N 41°24' E 141°35'612.0
2018-Feb-12 15:16N 41°30' E 141°34'412.8
2018-Feb-12 14:59N 41°33' E 141°34'612.6
2018-Feb-12 14:29N 41°39' E 141°33'812.6
2018-Feb-12 13:49N 41°48' E 141°34'1 0.1
2018-Feb-11 17:17N 41°49' E 141°35'414.4
2018-Feb-11 16:58N 41°45' E 141°35'815.1
2018-Feb-11 16:25N 41°36' E 141°35'715.8
2018-Feb-11 15:57N 41°29' E 141°35'  

Dump ship's entire track history